Time;durP1;ratioP1;P1;durP2;ratioP2;P2;SDS_P1;SDS_P2;PMS_P1;PMS_P2;Temp;Humidity;BMP_temperature;BMP_pressure;BME280_temperature;BME280_humidity;BME280_pressure;Samples;Min_cycle;Max_cycle;Signal;HPM_P1;HPM_P2
2021/05/21 00:02:09;;;;;;;5.25;0.95;;;11.30;79.00;;;;;;5017529;28;20041;-70
2021/05/21 00:04:35;;;;;;;3.55;0.70;;;11.30;79.10;;;;;;5017092;28;20371;-71
2021/05/21 00:07:00;;;;;;;1.83;0.60;;;11.30;77.80;;;;;;5017430;28;20104;-70
2021/05/21 00:09:26;;;;;;;2.85;0.60;;;11.40;77.60;;;;;;5017376;28;20030;-70
2021/05/21 00:11:52;;;;;;;1.77;0.50;;;11.40;78.10;;;;;;5017366;28;20324;-70
2021/05/21 00:14:20;;;;;;;6.55;0.60;;;11.30;79.10;;;;;;5017314;28;20022;-72
2021/05/21 00:16:47;;;;;;;1.42;0.52;;;11.30;79.20;;;;;;5016945;28;20092;-73
2021/05/21 00:19:12;;;;;;;2.33;0.75;;;11.30;78.90;;;;;;5016984;28;20108;-72
2021/05/21 00:21:38;;;;;;;3.22;0.90;;;11.30;78.80;;;;;;5017228;28;20064;-72
2021/05/21 00:24:04;;;;;;;3.13;1.08;;;11.30;78.80;;;;;;5016927;28;20033;-72
2021/05/21 00:26:30;;;;;;;3.00;1.15;;;11.30;78.50;;;;;;5017219;28;20385;-72
2021/05/21 00:28:56;;;;;;;3.78;0.88;;;11.40;79.20;;;;;;5016844;28;20046;-72
2021/05/21 00:31:22;;;;;;;2.53;0.88;;;11.40;77.70;;;;;;5017139;28;20102;-72
2021/05/21 00:33:49;;;;;;;6.88;0.90;;;11.40;77.30;;;;;;5016870;28;20053;-73
2021/05/21 00:36:15;;;;;;;1.75;0.70;;;11.40;77.10;;;;;;5017033;28;20038;-72
2021/05/21 00:38:42;;;;;;;3.15;1.10;;;11.40;77.30;;;;;;5017103;28;20127;-72
2021/05/21 00:41:07;;;;;;;2.33;0.88;;;11.40;76.90;;;;;;5016769;28;20136;-72
2021/05/21 00:43:33;;;;;;;1.15;0.60;;;11.40;77.60;;;;;;5017058;28;20046;-72
2021/05/21 00:46:00;;;;;;;6.28;2.35;;;11.30;80.10;;;;;;5016982;28;20037;-72
2021/05/21 00:48:25;;;;;;;9.45;3.08;;;11.30;79.70;;;;;;5016696;28;20036;-72
2021/05/21 00:50:51;;;;;;;4.93;1.20;;;11.20;80.60;;;;;;5016970;28;20113;-72
2021/05/21 00:53:18;;;;;;;3.50;1.45;;;11.10;81.20;;;;;;5017029;28;20101;-72
2021/05/21 00:55:44;;;;;;;9.75;3.10;;;11.00;82.50;;;;;;5016757;28;20299;-72
2021/05/21 00:58:09;;;;;;;3.13;1.05;;;10.90;80.20;;;;;;5016569;28;20030;-72
2021/05/21 01:00:35;;;;;;;3.60;1.02;;;10.90;80.90;;;;;;5016912;28;20033;-72
2021/05/21 01:03:01;;;;;;;2.10;1.00;;;10.90;80.20;;;;;;5016875;28;20367;-72
2021/05/21 01:05:27;;;;;;;8.10;1.50;;;10.90;79.00;;;;;;5016508;28;20030;-72
2021/05/21 01:07:52;;;;;;;29.90;9.45;;;10.80;81.00;;;;;;5016478;28;20131;-72
2021/05/21 01:10:18;;;;;;;17.52;5.38;;;10.80;80.40;;;;;;5016495;28;20033;-72
2021/05/21 01:12:45;;;;;;;11.80;4.03;;;10.90;81.60;;;;;;5016764;28;20029;-73
2021/05/21 01:15:12;;;;;;;4.78;2.25;;;11.00;81.00;;;;;;5016290;28;20429;-72
2021/05/21 01:17:38;;;;;;;12.95;4.10;;;11.10;83.60;;;;;;5016408;28;20026;-72
2021/05/21 01:20:06;;;;;;;62.88;18.20;;;11.10;82.90;;;;;;5016414;28;20018;-72
2021/05/21 01:22:32;;;;;;;25.13;7.80;;;11.00;81.90;;;;;;5016670;28;20026;-72
2021/05/21 01:24:58;;;;;;;17.48;4.68;;;11.10;83.20;;;;;;5016404;28;20030;-72
2021/05/21 01:27:25;;;;;;;30.20;9.70;;;11.00;83.60;;;;;;5016621;28;20334;-72
2021/05/21 01:29:51;;;;;;;23.50;9.55;;;11.10;83.00;;;;;;5016110;28;20450;-70
2021/05/21 01:32:16;;;;;;;7.32;3.58;;;11.20;81.20;;;;;;5016584;28;20030;-72
2021/05/21 01:34:42;;;;;;;4.25;2.00;;;11.30;80.20;;;;;;5016297;28;20034;-72
2021/05/21 01:37:19;;;;;;;8.32;4.10;;;11.40;79.90;;;;;;5019531;28;20033;-72
2021/05/21 01:39:45;;;;;;;20.20;10.30;;;11.60;80.60;;;;;;5019710;28;20030;-72
2021/05/21 01:42:12;;;;;;;15.50;8.75;;;11.60;81.40;;;;;;5019700;28;20022;-72
2021/05/21 01:44:40;;;;;;;20.88;8.23;;;11.50;81.20;;;;;;5019673;28;20026;-72
2021/05/21 01:47:07;;;;;;;11.00;5.82;;;11.40;81.60;;;;;;5019909;28;20030;-72
2021/05/21 01:49:33;;;;;;;17.42;7.65;;;11.30;83.20;;;;;;5019853;28;20026;-72
2021/05/21 01:52:00;;;;;;;15.65;7.35;;;11.20;83.70;;;;;;5019531;28;20026;-72
2021/05/21 01:54:28;;;;;;;17.20;7.78;;;11.10;83.20;;;;;;5019701;28;20029;-72
2021/05/21 01:56:57;;;;;;;14.15;8.27;;;11.10;82.80;;;;;;5019635;28;20414;-72
2021/05/21 01:59:24;;;;;;;23.15;11.57;;;11.00;83.70;;;;;;5019406;28;20026;-72
2021/05/21 02:01:51;;;;;;;23.83;12.15;;;11.00;83.60;;;;;;5019338;28;20414;-72
2021/05/21 02:04:27;;;;;;;22.00;10.85;;;11.00;83.80;;;;;;5019607;28;20036;-70
2021/05/21 02:06:52;;;;;;;25.08;12.10;;;11.00;83.20;;;;;;5019627;28;20079;-72
2021/05/21 02:09:19;;;;;;;5.20;3.03;;;11.10;80.40;;;;;;5019259;28;20117;-70
2021/05/21 02:11:44;;;;;;;7.22;1.20;;;11.10;79.70;;;;;;5019166;28;20022;-71
2021/05/21 02:14:10;;;;;;;4.55;2.50;;;11.20;79.30;;;;;;5019093;28;20044;-71
2021/05/21 02:16:36;;;;;;;8.52;2.75;;;11.20;79.60;;;;;;5019334;28;20030;-70
2021/05/21 02:19:01;;;;;;;5.47;3.03;;;11.10;79.70;;;;;;5019051;28;20061;-71
2021/05/21 02:21:32;;;;;;;1.40;0.88;;;11.10;80.00;;;;;;5019266;28;20018;-70
2021/05/21 02:24:00;;;;;;;5.28;0.70;;;11.10;79.70;;;;;;5019232;28;20026;-70
2021/05/21 02:26:26;;;;;;;1.90;1.20;;;11.10;79.40;;;;;;5019397;28;20026;-72
2021/05/21 02:28:52;;;;;;;4.18;2.20;;;11.10;79.50;;;;;;5018680;28;20433;-72
2021/05/21 02:31:19;;;;;;;11.05;4.93;;;11.10;79.60;;;;;;5018700;28;20518;-72
2021/05/21 02:33:45;;;;;;;6.68;2.38;;;11.10;80.70;;;;;;5019109;28;20069;-72
2021/05/21 02:36:11;;;;;;;5.47;2.05;;;11.00;83.40;;;;;;5018563;28;20080;-72
2021/05/21 02:38:37;;;;;;;4.45;1.70;;;10.90;83.00;;;;;;5018643;28;20026;-72
2021/05/21 02:41:03;;;;;;;3.67;1.70;;;10.70;82.80;;;;;;5018617;28;20026;-72
2021/05/21 02:43:28;;;;;;;3.35;1.48;;;10.70;83.60;;;;;;5018633;28;20026;-72
2021/05/21 02:45:54;;;;;;;8.82;1.83;;;10.70;85.00;;;;;;5018704;28;20042;-72
2021/05/21 02:48:20;;;;;;;4.85;1.52;;;10.70;83.80;;;;;;5018727;28;20041;-71
2021/05/21 02:50:45;;;;;;;4.25;1.67;;;10.80;82.20;;;;;;5018428;28;20041;-72
2021/05/21 02:53:11;;;;;;;3.38;1.38;;;10.90;81.70;;;;;;5018399;28;20171;-72
2021/05/21 02:55:37;;;;;;;3.40;1.52;;;11.00;81.00;;;;;;5018616;28;20029;-72
2021/05/21 02:58:03;;;;;;;2.38;1.00;;;11.20;81.10;;;;;;5018586;28;20048;-72
2021/05/21 03:00:29;;;;;;;2.75;1.33;;;11.30;81.20;;;;;;5018568;28;20052;-72
2021/05/21 03:02:56;;;;;;;4.85;1.50;;;11.40;82.20;;;;;;5018544;28;20076;-72
2021/05/21 03:05:24;;;;;;;4.88;1.25;;;11.40;81.10;;;;;;5018361;28;20369;-72
2021/05/21 03:07:58;;;;;;;2.95;1.08;;;11.50;81.60;;;;;;5018347;28;20080;-73
2021/05/21 03:10:25;;;;;;;4.45;1.08;;;11.40;81.40;;;;;;5018395;28;20088;-70
2021/05/21 03:12:51;;;;;;;5.32;1.23;;;11.30;81.20;;;;;;5018013;28;20029;-72
2021/05/21 03:15:18;;;;;;;2.30;1.02;;;11.30;81.30;;;;;;5018142;28;20076;-72
2021/05/21 03:17:44;;;;;;;2.47;1.42;;;11.20;82.70;;;;;;5018216;28;20025;-72
2021/05/21 03:20:10;;;;;;;4.28;1.10;;;11.20;83.30;;;;;;5018213;28;20025;-72
2021/05/21 03:22:36;;;;;;;4.40;1.15;;;11.20;82.80;;;;;;5018158;28;20026;-72
2021/05/21 03:25:04;;;;;;;2.55;1.33;;;11.10;83.10;;;;;;5018106;28;20338;-72
2021/05/21 03:27:33;;;;;;;5.00;1.35;;;11.10;82.50;;;;;;5017764;28;20140;-72
2021/05/21 03:30:00;;;;;;;2.33;1.35;;;11.10;83.30;;;;;;5017571;28;20054;-72
2021/05/21 03:32:26;;;;;;;6.60;1.63;;;11.00;83.00;;;;;;5017677;28;20029;-72
2021/05/21 03:34:52;;;;;;;3.30;1.40;;;11.00;83.00;;;;;;5017910;28;20022;-72
2021/05/21 03:37:18;;;;;;;3.72;1.63;;;11.00;83.40;;;;;;5017514;28;20026;-72
2021/05/21 03:39:44;;;;;;;3.00;1.13;;;11.00;83.20;;;;;;5017845;28;20025;-72
2021/05/21 03:42:10;;;;;;;2.83;1.38;;;10.90;83.70;;;;;;5017527;28;20041;-72
2021/05/21 03:44:36;;;;;;;4.25;1.30;;;10.90;84.80;;;;;;5017404;28;20029;-72
2021/05/21 03:47:02;;;;;;;2.83;1.23;;;10.90;85.20;;;;;;5017421;28;20084;-72
2021/05/21 03:49:31;;;;;;;3.22;1.55;;;11.00;83.00;;;;;;5017354;28;20028;-73
2021/05/21 03:51:57;;;;;;;3.42;1.08;;;11.00;82.10;;;;;;5017650;28;20038;-72
2021/05/21 03:54:23;;;;;;;2.08;0.95;;;11.10;82.50;;;;;;5017250;28;20026;-72
2021/05/21 03:56:50;;;;;;;4.20;1.08;;;11.10;82.50;;;;;;5017230;28;20034;-72
2021/05/21 03:59:15;;;;;;;2.25;1.10;;;11.10;82.40;;;;;;5017131;28;20026;-72
2021/05/21 04:01:42;;;;;;;2.22;1.08;;;11.10;82.50;;;;;;5017152;28;20028;-72
2021/05/21 04:04:07;;;;;;;4.60;1.10;;;11.10;82.60;;;;;;5017149;28;20018;-72
2021/05/21 04:06:33;;;;;;;3.38;1.13;;;11.20;82.00;;;;;;5017172;28;20087;-72
2021/05/21 04:09:00;;;;;;;2.92;1.20;;;11.20;82.10;;;;;;5017489;28;20045;-72
2021/05/21 04:11:25;;;;;;;2.20;1.40;;;11.30;81.70;;;;;;5017369;28;20068;-72
2021/05/21 04:13:51;;;;;;;3.58;1.13;;;11.30;82.10;;;;;;5017364;28;20471;-72
2021/05/21 04:16:17;;;;;;;3.45;1.60;;;11.30;81.30;;;;;;5017255;28;20366;-72
2021/05/21 04:18:42;;;;;;;3.63;1.08;;;11.40;82.10;;;;;;5017267;28;20092;-72
2021/05/21 04:21:08;;;;;;;2.72;1.17;;;11.40;82.40;;;;;;5017275;28;20029;-72
2021/05/21 04:23:39;;;;;;;1.67;0.98;;;11.40;82.80;;;;;;5017332;28;20029;-72
2021/05/21 04:26:05;;;;;;;3.13;1.00;;;11.50;83.40;;;;;;5017257;28;20034;-72
2021/05/21 04:28:31;;;;;;;1.75;0.90;;;11.50;83.90;;;;;;5016699;28;20046;-73
2021/05/21 04:30:57;;;;;;;2.78;1.02;;;11.60;84.00;;;;;;5017123;28;20026;-72
2021/05/21 04:33:22;;;;;;;3.33;1.08;;;11.70;82.70;;;;;;5016900;28;20076;-72
2021/05/21 04:35:48;;;;;;;2.97;1.13;;;11.70;82.70;;;;;;5017004;28;20058;-70
2021/05/21 04:38:14;;;;;;;1.70;0.80;;;11.80;82.60;;;;;;5017064;28;20022;-72
2021/05/21 04:40:39;;;;;;;5.55;1.13;;;11.90;80.00;;;;;;5017046;28;20029;-72
2021/05/21 04:43:05;;;;;;;2.70;1.00;;;12.00;79.80;;;;;;5017090;28;20026;-72
2021/05/21 04:45:31;;;;;;;1.08;0.60;;;12.10;81.10;;;;;;5016784;28;20026;-69
2021/05/21 04:47:56;;;;;;;2.78;0.80;;;12.30;81.70;;;;;;5016742;28;20037;-72
2021/05/21 04:50:22;;;;;;;1.45;0.70;;;12.40;82.80;;;;;;5016677;28;20041;-72
2021/05/21 04:52:49;;;;;;;2.75;1.00;;;12.50;82.40;;;;;;5016710;28;20022;-72
2021/05/21 04:55:15;;;;;;;2.20;0.82;;;12.60;82.50;;;;;;5016766;28;20406;-72
2021/05/21 04:57:41;;;;;;;2.13;0.80;;;12.60;82.60;;;;;;5016915;28;20026;-72
2021/05/21 05:00:07;;;;;;;3.42;0.90;;;12.80;82.90;;;;;;5016596;28;20433;-72
2021/05/21 05:02:33;;;;;;;7.05;1.02;;;12.80;83.20;;;;;;5016620;28;20014;-70
2021/05/21 05:04:59;;;;;;;2.25;0.85;;;12.90;81.90;;;;;;5016804;28;20026;-72
2021/05/21 05:07:24;;;;;;;2.38;0.90;;;12.90;79.60;;;;;;5016844;28;20025;-70
2021/05/21 05:09:50;;;;;;;1.95;1.10;;;13.00;83.10;;;;;;5016535;28;20321;-72
2021/05/21 05:12:16;;;;;;;1.75;0.90;;;13.10;81.60;;;;;;5020286;28;20026;-70
2021/05/21 05:14:41;;;;;;;6.97;0.85;;;13.20;78.70;;;;;;5020510;28;20407;-72
2021/05/21 05:17:07;;;;;;;1.83;0.80;;;13.20;75.30;;;;;;5020401;28;20026;-72
2021/05/21 05:19:33;;;;;;;2.30;0.80;;;13.30;77.00;;;;;;5020447;28;20030;-70
2021/05/21 05:21:58;;;;;;;2.33;1.08;;;13.30;77.10;;;;;;5020423;28;20026;-71
2021/05/21 05:24:26;;;;;;;2.05;0.82;;;13.40;73.40;;;;;;5020245;28;20041;-71
2021/05/21 05:26:52;;;;;;;2.17;0.70;;;13.50;73.50;;;;;;5020461;28;20032;-71
2021/05/21 05:29:18;;;;;;;1.15;0.63;;;13.70;70.90;;;;;;5019886;28;20053;-71
2021/05/21 05:31:46;;;;;;;1.52;0.90;;;13.70;73.60;;;;;;5019900;28;20025;-71
2021/05/21 05:34:12;;;;;;;2.50;1.02;;;13.80;72.80;;;;;;5020169;28;20038;-71
2021/05/21 05:36:38;;;;;;;1.42;0.80;;;13.80;73.00;;;;;;5020114;28;20360;-71
2021/05/21 05:39:05;;;;;;;1.00;0.70;;;13.90;72.90;;;;;;5020097;28;20018;-71
2021/05/21 05:41:32;;;;;;;5.38;0.98;;;14.00;74.70;;;;;;5019768;28;20026;-71
2021/05/21 05:43:57;;;;;;;1.45;0.80;;;14.10;75.90;;;;;;5020001;28;20018;-71
2021/05/21 05:46:23;;;;;;;3.25;1.05;;;14.10;75.80;;;;;;5019938;28;20030;-71
2021/05/21 05:48:50;;;;;;;1.13;0.60;;;14.30;73.50;;;;;;5020197;28;20056;-71
2021/05/21 05:51:16;;;;;;;1.85;0.60;;;14.50;75.30;;;;;;5019866;28;20026;-71
2021/05/21 05:53:41;;;;;;;1.13;0.60;;;14.70;74.70;;;;;;5019594;28;20373;-71
2021/05/21 05:56:07;;;;;;;2.33;0.75;;;15.00;72.50;;;;;;5019759;28;20073;-71
2021/05/21 05:58:33;;;;;;;2.90;0.60;;;15.20;72.20;;;;;;5019454;28;20034;-71
2021/05/21 06:00:59;;;;;;;1.35;0.60;;;15.40;74.10;;;;;;5019730;28;20026;-71
2021/05/21 06:03:27;;;;;;;1.83;0.68;;;15.70;72.70;;;;;;5019757;28;20112;-71
2021/05/21 06:05:53;;;;;;;1.80;0.75;;;15.90;71.10;;;;;;5019216;28;20037;-71
2021/05/21 06:08:19;;;;;;;1.58;0.52;;;16.00;72.00;;;;;;5019576;28;20026;-71
2021/05/21 06:10:45;;;;;;;4.28;0.70;;;16.10;73.70;;;;;;5019216;28;20030;-71
2021/05/21 06:13:11;;;;;;;2.72;0.65;;;16.20;75.60;;;;;;5019209;28;20026;-71
2021/05/21 06:15:38;;;;;;;1.45;0.60;;;16.30;76.20;;;;;;5019002;28;20080;-71
2021/05/21 06:18:04;;;;;;;2.97;0.70;;;16.40;71.20;;;;;;5019110;28;20026;-71
2021/05/21 06:20:33;;;;;;;2.25;0.60;;;16.70;70.60;;;;;;5018992;28;20022;-71
2021/05/21 06:23:02;;;;;;;1.35;0.68;;;16.90;71.40;;;;;;5018963;28;20381;-71
2021/05/21 06:28:10;;;;;;;2.35;0.50;;;16.90;70.20;;;;;;5018745;28;20052;-71
2021/05/21 06:30:37;;;;;;;3.75;0.77;;;16.90;71.10;;;;;;5018874;28;20034;-71
2021/05/21 06:33:03;;;;;;;5.15;0.95;;;16.80;71.30;;;;;;5018825;28;20492;-71
2021/05/21 06:35:29;;;;;;;0.98;0.47;;;16.80;70.80;;;;;;5018935;28;20033;-71
2021/05/21 06:37:55;;;;;;;2.08;0.73;;;16.90;73.00;;;;;;5018717;28;20025;-71
2021/05/21 06:40:21;;;;;;;1.95;0.57;;;17.10;73.80;;;;;;5018843;28;20018;-71
2021/05/21 06:42:47;;;;;;;1.10;0.70;;;17.50;70.30;;;;;;5018631;28;20418;-71
2021/05/21 06:45:14;;;;;;;1.95;0.90;;;17.80;68.40;;;;;;5018487;28;20022;-71
2021/05/21 06:47:40;;;;;;;1.25;0.70;;;18.10;67.50;;;;;;5018774;28;20365;-71
2021/05/21 06:50:06;;;;;;;2.08;0.85;;;18.40;67.50;;;;;;5018820;28;20022;-71
2021/05/21 06:52:32;;;;;;;3.75;0.73;;;18.40;67.00;;;;;;5018411;28;20022;-71
2021/05/21 06:54:58;;;;;;;1.80;0.70;;;18.60;67.20;;;;;;5018706;28;20033;-71
2021/05/21 06:57:24;;;;;;;4.65;0.80;;;18.70;68.20;;;;;;5018277;28;20334;-71
2021/05/21 06:59:49;;;;;;;1.20;0.60;;;18.70;66.20;;;;;;5018281;28;20054;-71
2021/05/21 07:02:15;;;;;;;2.25;0.82;;;18.60;67.20;;;;;;5018228;28;20041;-71
2021/05/21 07:04:41;;;;;;;1.08;0.70;;;18.80;66.40;;;;;;5018424;28;20033;-71
2021/05/21 07:07:07;;;;;;;1.65;0.82;;;19.10;63.40;;;;;;5018054;28;20084;-71
2021/05/21 07:09:32;;;;;;;2.03;0.50;;;19.40;62.40;;;;;;5018134;28;20124;-71
2021/05/21 07:11:58;;;;;;;2.30;1.00;;;19.60;63.20;;;;;;5018065;28;20033;-71
2021/05/21 07:14:25;;;;;;;1.70;0.77;;;19.60;64.00;;;;;;5018285;28;20102;-71
2021/05/21 07:16:51;;;;;;;2.22;1.02;;;19.80;63.60;;;;;;5017899;28;20414;-71
2021/05/21 07:19:18;;;;;;;1.73;0.70;;;19.90;62.50;;;;;;5018225;28;20100;-71
2021/05/21 07:21:47;;;;;;;1.95;0.95;;;19.80;62.50;;;;;;5017846;28;20029;-71
2021/05/21 07:24:13;;;;;;;3.38;0.90;;;19.90;63.60;;;;;;5018043;28;20076;-71
2021/05/21 07:26:40;;;;;;;3.88;0.95;;;20.10;65.10;;;;;;5017790;28;20034;-71
2021/05/21 07:29:07;;;;;;;1.45;0.80;;;20.20;62.90;;;;;;5017606;28;20045;-71
2021/05/21 07:31:33;;;;;;;1.27;0.70;;;20.50;64.10;;;;;;5017974;28;20030;-71
2021/05/21 07:34:00;;;;;;;2.83;1.38;;;20.60;63.50;;;;;;5016947;28;20026;-71
2021/05/21 07:36:29;;;;;;;3.10;1.10;;;20.50;63.70;;;;;;5017839;28;20026;-71
2021/05/21 07:39:03;;;;;;;5.60;1.17;;;20.10;62.10;;;;;;5017588;28;20030;-71
2021/05/21 07:41:28;;;;;;;4.35;1.13;;;19.60;65.00;;;;;;5017887;28;20022;-71
2021/05/21 07:43:55;;;;;;;3.05;1.20;;;19.60;64.70;;;;;;5017810;28;20414;-71
2021/05/21 07:46:24;;;;;;;2.47;0.88;;;19.60;64.10;;;;;;5017770;28;20049;-71
2021/05/21 07:48:50;;;;;;;3.63;1.30;;;19.80;64.70;;;;;;5017389;28;20041;-71
2021/05/21 07:51:20;;;;;;;2.78;1.00;;;19.80;63.60;;;;;;5017694;28;20545;-71
2021/05/21 07:53:47;;;;;;;2.88;1.25;;;19.80;64.50;;;;;;5017728;28;20084;-71
2021/05/21 07:56:17;;;;;;;2.55;0.85;;;19.90;64.50;;;;;;5017646;28;20117;-71
2021/05/21 07:58:42;;;;;;;1.77;0.80;;;20.00;64.20;;;;;;5017277;28;20034;-71
2021/05/21 08:01:08;;;;;;;2.45;0.90;;;20.20;63.20;;;;;;5017536;28;20032;-71
2021/05/21 08:03:34;;;;;;;3.80;1.20;;;20.40;64.50;;;;;;5017575;28;20025;-71
2021/05/21 08:06:00;;;;;;;1.60;0.88;;;20.50;63.90;;;;;;5017436;28;20117;-71
2021/05/21 08:08:27;;;;;;;3.15;0.90;;;20.60;64.60;;;;;;5017397;28;20026;-71
2021/05/21 08:10:57;;;;;;;2.60;0.80;;;20.50;65.00;;;;;;5017384;28;20030;-71
2021/05/21 08:13:23;;;;;;;4.28;1.05;;;20.50;63.60;;;;;;5017389;28;20072;-71
2021/05/21 08:15:51;;;;;;;3.22;1.00;;;20.70;63.00;;;;;;5016943;28;20112;-71
2021/05/21 08:18:17;;;;;;;1.33;0.63;;;21.00;63.30;;;;;;5016985;28;20045;-71
2021/05/21 08:20:43;;;;;;;4.75;0.85;;;21.10;61.60;;;;;;5016992;28;20414;-71
2021/05/21 08:23:16;;;;;;;5.68;1.48;;;21.10;61.70;;;;;;5016996;28;20034;-71
2021/05/21 08:25:42;;;;;;;1.73;0.90;;;21.00;62.80;;;;;;5016804;28;20390;-70
2021/05/21 08:28:08;;;;;;;2.22;0.77;;;20.70;62.40;;;;;;5016699;28;20053;-71
2021/05/21 08:30:35;;;;;;;4.38;1.02;;;20.40;66.50;;;;;;5016847;28;20022;-70
2021/05/21 08:33:01;;;;;;;1.50;0.80;;;20.20;61.70;;;;;;5016919;28;20041;-70
2021/05/21 08:35:27;;;;;;;2.03;0.85;;;19.90;64.20;;;;;;5017023;28;20390;-71
2021/05/21 08:37:53;;;;;;;1.38;0.70;;;19.50;65.00;;;;;;5017103;28;20050;-70
2021/05/21 08:40:29;;;;;;;1.70;0.88;;;19.20;63.90;;;;;;5016789;28;20322;-70
2021/05/21 08:42:58;;;;;;;3.88;1.10;;;19.20;65.90;;;;;;5017106;28;20022;-71
2021/05/21 08:45:25;;;;;;;1.15;0.70;;;19.10;64.60;;;;;;5019268;28;20036;-71
2021/05/21 08:47:51;;;;;;;4.80;1.10;;;19.30;66.60;;;;;;5020832;28;20022;-71
2021/05/21 08:50:18;;;;;;;2.40;1.00;;;19.70;64.40;;;;;;5021038;28;20037;-70
2021/05/21 08:52:45;;;;;;;5.10;1.50;;;19.90;63.20;;;;;;5020683;28;20064;-70
2021/05/21 08:55:11;;;;;;;2.22;1.00;;;20.00;63.20;;;;;;5020921;28;20356;-71
2021/05/21 08:57:37;;;;;;;1.98;1.02;;;20.20;60.70;;;;;;5020808;28;20165;-70
2021/05/21 09:00:04;;;;;;;3.55;1.20;;;20.20;63.10;;;;;;5020598;28;20331;-70
2021/05/21 09:02:30;;;;;;;2.15;1.13;;;20.10;59.30;;;;;;5020783;28;20033;-70
2021/05/21 09:04:58;;;;;;;2.83;1.10;;;20.20;64.60;;;;;;5020371;28;20026;-71
2021/05/21 09:07:26;;;;;;;3.08;1.23;;;20.10;65.80;;;;;;5020437;28;20026;-70
2021/05/21 09:09:53;;;;;;;3.53;1.10;;;20.10;63.90;;;;;;5020345;28;20030;-70
2021/05/21 09:12:20;;;;;;;2.75;1.25;;;19.90;66.10;;;;;;5020657;28;20037;-70
2021/05/21 09:15:10;;;;;;;2.03;0.90;;;20.20;64.80;;;;;;5020552;28;20058;-70
2021/05/21 09:17:36;;;;;;;3.72;1.10;;;20.70;62.20;;;;;;5020104;28;20423;-70
2021/05/21 09:20:03;;;;;;;2.30;1.00;;;21.40;60.50;;;;;;5020166;28;20030;-70
2021/05/21 09:22:29;;;;;;;2.25;1.10;;;22.10;57.70;;;;;;5020184;28;20014;-70
2021/05/21 09:24:54;;;;;;;2.47;1.23;;;22.90;58.20;;;;;;5019990;28;20118;-71
2021/05/21 09:27:21;;;;;;;3.35;1.20;;;23.40;56.70;;;;;;5020013;28;20030;-70
2021/05/21 09:29:47;;;;;;;6.93;1.50;;;23.20;56.60;;;;;;5019923;28;20061;-70
2021/05/21 09:32:20;;;;;;;2.95;1.65;;;22.70;58.40;;;;;;5020313;28;20034;-70
2021/05/21 09:35:18;;;;;;;5.43;1.70;;;22.00;60.60;;;;;;5019916;28;20088;-70
2021/05/21 09:37:49;;;;;;;2.78;1.63;;;21.60;60.60;;;;;;5019977;28;20311;-70
2021/05/21 09:40:17;;;;;;;3.63;1.80;;;21.20;61.30;;;;;;5019827;28;20084;-70
2021/05/21 09:43:03;;;;;;;4.07;2.22;;;20.90;61.40;;;;;;5019809;28;20030;-71
2021/05/21 09:45:29;;;;;;;3.25;2.15;;;20.70;64.60;;;;;;5019662;28;20056;-70
2021/05/21 09:48:05;;;;;;;3.47;2.08;;;20.40;64.50;;;;;;5019988;28;20061;-70
2021/05/21 09:50:35;;;;;;;4.25;2.47;;;20.00;67.80;;;;;;5019953;28;20026;-70
2021/05/21 09:53:11;;;;;;;2.95;1.90;;;20.00;64.50;;;;;;5019921;28;20105;-70
2021/05/21 09:55:45;;;;;;;4.88;2.28;;;20.10;64.20;;;;;;5019612;28;20465;-70
2021/05/21 09:58:43;;;;;;;4.55;1.95;;;20.10;65.40;;;;;;5019407;28;20100;-70
2021/05/21 10:01:16;;;;;;;2.83;2.20;;;20.10;66.40;;;;;;5018350;28;20363;-70
2021/05/21 10:03:52;;;;;;;3.03;2.40;;;20.00;64.00;;;;;;5019745;28;20101;-70
2021/05/21 10:06:18;;;;;;;7.97;2.65;;;20.00;67.60;;;;;;5019395;28;20033;-70
2021/05/21 10:08:45;;;;;;;2.90;2.35;;;20.00;65.60;;;;;;5019618;28;20101;-70
2021/05/21 10:11:12;;;;;;;4.22;2.20;;;20.00;65.00;;;;;;5019514;28;20034;-70
2021/05/21 10:13:43;;;;;;;2.95;2.30;;;20.10;63.60;;;;;;5019211;28;20026;-70
2021/05/21 10:16:10;;;;;;;6.00;2.53;;;20.10;62.80;;;;;;5023489;28;20026;-71
2021/05/21 10:18:37;;;;;;;4.07;2.17;;;20.10;64.60;;;;;;5027757;28;20102;-71
2021/05/21 10:21:04;;;;;;;3.03;2.55;;;20.30;66.00;;;;;;5019303;28;20034;-71
2021/05/21 10:23:36;;;;;;;6.93;2.70;;;20.40;65.80;;;;;;5019312;28;20053;-71
2021/05/21 10:26:09;;;;;;;4.35;2.58;;;20.40;67.90;;;;;;5019379;28;20029;-71
2021/05/21 10:28:38;;;;;;;3.15;2.50;;;20.20;66.90;;;;;;5018790;28;20049;-71
2021/05/21 10:31:04;;;;;;;4.65;2.30;;;19.70;65.20;;;;;;5019084;28;20046;-71
2021/05/21 10:33:36;;;;;;;3.83;2.70;;;19.50;67.20;;;;;;5019169;28;20037;-71
2021/05/21 10:36:22;;;;;;;4.68;3.03;;;19.30;67.20;;;;;;5018969;28;20105;-70
2021/05/21 10:39:07;;;;;;;3.67;2.38;;;18.80;68.60;;;;;;5019058;28;20068;-70
2021/05/21 10:41:57;;;;;;;5.20;2.40;;;18.60;69.30;;;;;;5018969;28;20032;-70
2021/05/21 10:44:23;;;;;;;6.80;2.80;;;18.80;71.30;;;;;;5018275;28;20030;-70
2021/05/21 10:46:51;;;;;;;3.67;2.70;;;19.00;71.70;;;;;;5018573;28;20026;-70
2021/05/21 10:49:22;;;;;;;3.28;2.40;;;19.30;70.30;;;;;;5018776;28;20445;-70
2021/05/21 10:51:49;;;;;;;6.93;2.70;;;19.60;70.00;;;;;;5018462;28;20034;-72
2021/05/21 10:54:36;;;;;;;3.83;3.00;;;20.10;66.60;;;;;;5018356;28;20125;-70
2021/05/21 10:57:30;;;;;;;5.13;2.80;;;20.30;65.80;;;;;;5018602;28;20038;-71
2021/05/21 11:00:00;;;;;;;3.95;2.50;;;20.30;67.40;;;;;;5018388;28;20033;-71
2021/05/21 11:02:42;;;;;;;5.55;2.60;;;20.40;69.10;;;;;;5018317;28;20419;-71
2021/05/21 11:05:27;;;;;;;2.50;2.20;;;20.60;66.30;;;;;;5018535;28;20030;-71
2021/05/21 11:07:55;;;;;;;3.30;2.27;;;20.70;65.60;;;;;;5017614;28;20106;-71
2021/05/21 11:10:28;;;;;;;7.13;2.40;;;20.90;66.30;;;;;;5018274;28;20426;-71
2021/05/21 11:13:00;;;;;;;4.20;2.30;;;21.50;66.90;;;;;;5018135;28;20030;-71
2021/05/21 11:15:39;;;;;;;4.68;2.10;;;22.20;63.50;;;;;;5018268;28;20092;-71
2021/05/21 11:18:18;;;;;;;3.53;2.38;;;22.80;64.00;;;;;;5018335;28;20029;-71
2021/05/21 11:21:04;;;;;;;3.75;2.22;;;23.30;62.70;;;;;;5018182;28;20038;-71
2021/05/21 11:24:02;;;;;;;3.30;2.25;;;22.80;60.80;;;;;;5017971;28;20405;-71
2021/05/21 11:26:28;;;;;;;5.95;2.33;;;22.20;58.40;;;;;;5018397;28;20053;-71
2021/05/21 11:28:56;;;;;;;3.60;2.28;;;21.10;64.80;;;;;;5017643;28;20508;-71
2021/05/21 11:31:26;;;;;;;5.53;2.17;;;21.10;63.60;;;;;;5018042;28;20030;-71
2021/05/21 11:33:53;;;;;;;3.67;1.60;;;21.50;67.60;;;;;;5017683;28;20048;-71
2021/05/21 11:36:21;;;;;;;7.28;1.70;;;22.10;69.20;;;;;;5017610;28;20025;-71
2021/05/21 11:38:47;;;;;;;3.67;1.90;;;22.40;68.10;;;;;;5017680;28;20022;-71
2021/05/21 11:41:13;;;;;;;3.88;1.63;;;22.80;58.10;;;;;;5017873;28;20026;-71
2021/05/21 11:43:41;;;;;;;4.72;1.98;;;22.60;61.90;;;;;;5017906;28;20092;-71
2021/05/21 11:46:16;;;;;;;3.30;1.55;;;22.60;64.50;;;;;;5017448;28;20049;-71
2021/05/21 11:48:43;;;;;;;3.38;1.70;;;22.30;62.80;;;;;;5017793;28;20088;-71
2021/05/21 11:51:15;;;;;;;3.38;1.60;;;21.70;63.40;;;;;;5017391;28;20275;-71
2021/05/21 11:54:01;;;;;;;3.30;1.40;;;21.40;64.70;;;;;;5017751;28;20104;-71
2021/05/21 11:56:41;;;;;;;2.67;1.67;;;21.20;67.30;;;;;;5017786;28;20360;-71
2021/05/21 11:59:09;;;;;;;3.28;2.10;;;21.50;63.80;;;;;;5017651;28;20097;-71
2021/05/21 12:01:37;;;;;;;2.70;1.70;;;21.30;60.40;;;;;;5017216;28;20101;-71
2021/05/21 12:04:07;;;;;;;3.78;1.63;;;21.10;63.20;;;;;;5017455;28;20018;-71
2021/05/21 12:06:39;;;;;;;4.57;1.83;;;21.10;65.30;;;;;;5017465;28;20076;-71
2021/05/21 12:09:07;;;;;;;5.00;1.67;;;21.20;66.50;;;;;;5017214;28;20105;-71
2021/05/21 12:11:33;;;;;;;3.20;1.73;;;21.30;65.70;;;;;;5017088;28;20026;-71
2021/05/21 12:14:04;;;;;;;3.08;1.63;;;21.40;63.30;;;;;;5017592;28;20358;-71
2021/05/21 12:16:31;;;;;;;3.38;1.60;;;21.40;67.70;;;;;;5017595;28;20330;-71
2021/05/21 12:18:59;;;;;;;2.95;1.70;;;21.40;63.90;;;;;;5017079;28;20076;-71
2021/05/21 12:21:27;;;;;;;4.15;1.80;;;21.40;67.50;;;;;;5017239;28;20030;-71
2021/05/21 12:23:56;;;;;;;2.40;1.45;;;21.50;64.40;;;;;;5017270;28;20022;-71
2021/05/21 12:26:24;;;;;;;2.20;1.30;;;21.40;64.50;;;;;;5016856;28;20320;-71
2021/05/21 12:28:51;;;;;;;4.07;1.70;;;21.10;64.60;;;;;;5016692;28;20464;-71
2021/05/21 12:31:26;;;;;;;3.10;1.15;;;21.10;61.80;;;;;;5016885;28;20026;-71
2021/05/21 12:33:52;;;;;;;5.28;2.20;;;20.90;65.70;;;;;;5017540;28;20034;-71
2021/05/21 12:36:18;;;;;;;5.00;1.38;;;20.70;62.70;;;;;;5016794;28;20026;-71
2021/05/21 12:38:49;;;;;;;3.42;1.40;;;20.40;66.10;;;;;;5016815;28;20033;-71
2021/05/21 12:41:15;;;;;;;4.22;1.52;;;20.40;66.40;;;;;;5017068;28;20053;-71
2021/05/21 12:43:41;;;;;;;3.17;1.10;;;20.40;64.10;;;;;;5017124;28;20355;-71
2021/05/21 12:46:08;;;;;;;3.45;1.60;;;20.70;65.80;;;;;;5016954;28;20096;-71
2021/05/21 12:48:42;;;;;;;6.25;1.60;;;20.80;63.00;;;;;;5017048;28;20026;-71
2021/05/21 12:51:27;;;;;;;3.00;1.80;;;20.60;62.30;;;;;;5017024;28;20419;-70
2021/05/21 12:53:53;;;;;;;2.38;1.50;;;20.40;62.80;;;;;;5016968;28;20318;-70